Date,TemperatureHighF,TemperatureAvgF,TemperatureLowF,DewpointHighF,DewpointAvgF,DewpointLowF,HumidityHigh,HumidityAvg,HumidityLow,PressureMaxIn,PressureMinIn,WindSpeedMaxMPH,WindSpeedAvgMPH,GustSpeedMaxMPH,PrecipitationSumIn
2013-2-1,36.8,26.5,21.8,23.4,10.1,6.4,61,50,43,30.40,30.02,12,2,13,0.00
2013-2-2,37.5,32.3,29.3,29.9,28.1,0.0,91,85,52,0.00,0.00,11,3,16,0.01
2013-2-3,39.9,33.9,26.1,29.5,25.0,20.0,89,71,50,0.00,0.00,25,3,25,0.01
2013-2-4,48.5,39.8,20.4,28.5,24.7,16.9,87,56,43,30.10,30.01,10,2,13,0.00
2013-2-5,53.7,45.2,32.4,37.8,32.0,22.9,80,61,45,30.05,29.91,15,2,15,0.00
2013-2-6,57.9,40.6,28.1,33.2,28.7,25.5,91,67,33,30.22,30.00,9,1,9,0.00
2013-2-7,44.5,37.8,31.4,38.7,32.8,26.8,93,83,54,30.22,30.02,6,0,6,0.34
2013-2-8,49.1,42.4,31.4,44.6,35.2,25.6,95,77,49,30.17,29.92,18,2,18,0.02
2013-2-9,56.7,40.7,25.2,27.1,21.6,11.9,87,53,18,30.33,30.15,8,1,8,0.00
2013-2-10,54.2,43.4,31.9,39.2,26.2,18.0,92,54,24,30.32,30.14,15,2,15,0.64
2013-2-11,55.7,48.7,40.9,49.6,39.1,30.4,92,71,44,30.21,29.95,12,2,12,0.30
2013-2-12,50.4,40.8,30.1,37.3,30.1,23.9,92,68,37,30.13,29.88,8,0,8,0.27
2013-2-13,49.7,38.3,29.7,39.8,34.8,26.7,94,88,63,29.90,29.61,17,1,17,0.20
2013-2-14,51.2,34.1,28.5,30.7,27.4,23.7,92,79,40,30.06,29.90,15,1,15,0.00
2013-2-15,52.5,36.7,24.3,35.5,28.4,21.8,92,75,43,30.12,29.96,16,1,16,0.00
2013-2-16,31.5,26.9,20.4,27.2,19.7,6.2,88,75,51,30.06,29.87,21,2,21,0.00
2013-2-17,35.5,25.4,18.4,14.4,8.0,4.5,65,48,30,30.29,30.05,22,3,22,0.05
2013-2-18,53.9,34.7,17.4,30.6,21.2,13.4,87,60,36,30.39,30.13,15,2,15,0.01
2013-2-19,47.7,39.2,30.5,39.0,27.2,11.1,91,64,39,30.14,29.86,26,3,26,0.17
2013-2-20,44.9,31.7,19.4,16.8,14.0,10.1,79,50,26,30.18,30.06,9,1,9,0.00
2013-2-21,61.9,39.2,21.2,38.3,23.2,15.5,91,59,23,30.24,30.05,12,1,12,0.38
2013-2-22,48.2,41.1,36.3,44.2,37.8,32.8,93,88,81,30.20,30.00,13,1,13,0.48
2013-2-23,55.8,46.7,39.5,49.5,43.7,37.7,95,89,75,30.02,29.78,7,0,7,0.19
2013-2-24,54.7,36.8,30.1,39.6,32.2,24.5,100,86,38,30.06,29.83,10,0,10,0.00
2013-2-25,49.4,37.9,27.2,34.0,28.3,24.1,88,70,47,30.09,29.94,9,1,9,0.00
2013-2-26,52.4,41.4,34.3,44.7,36.0,29.9,92,82,64,29.94,29.47,17,3,17,0.96
2013-2-27,53.4,40.5,34.2,33.3,29.5,26.0,76,66,42,29.76,29.62,20,3,20,0.00
2013-2-28,38.6,33.5,29.6,27.0,23.8,21.6,76,67,56,29.92,29.70,20,3,20,0.01